createdAt,value
2018-07-04T00:00:46.620Z,99.99
2018-07-04T00:01:46.875Z,99.99
2018-07-04T00:02:46.869Z,99.99
2018-07-04T00:03:46.595Z,99.99
2018-07-04T00:04:46.579Z,99.99
2018-07-04T00:05:46.836Z,99.99
2018-07-04T00:16:11.961Z,99.99
2018-07-04T00:16:59.479Z,99.99
2018-07-04T00:17:59.463Z,99.99
2018-07-04T00:18:59.466Z,99.99
2018-07-04T00:19:59.183Z,99.99
2018-07-04T00:20:59.169Z,99.99
2018-07-04T00:21:59.428Z,99.99
2018-07-04T00:22:59.416Z,99.99
2018-07-04T00:23:59.406Z,99.99
2018-07-04T00:24:59.390Z,99.99
2018-07-04T00:25:59.120Z,99.99
2018-07-04T00:26:59.107Z,99.99
2018-07-04T00:27:59.101Z,99.99
2018-07-04T00:28:59.347Z,99.99
2018-07-04T00:29:59.337Z,99.99
2018-07-04T00:30:59.343Z,99.99
2018-07-04T00:31:59.057Z,99.99
2018-07-04T00:32:59.053Z,99.99
2018-07-04T00:33:59.294Z,99.99
2018-07-04T00:34:59.295Z,99.99
2018-07-04T00:35:59.295Z,99.99
2018-07-04T00:36:59.267Z,99.99
2018-07-04T00:37:58.992Z,99.99
2018-07-04T00:38:58.985Z,99.99
2018-07-04T00:39:59.051Z,99.99
2018-07-04T00:40:59.231Z,99.99
2018-07-04T00:41:59.214Z,99.99
2018-07-04T00:42:58.939Z,99.99
2018-07-04T00:43:59.201Z,99.99
2018-07-04T00:44:59.184Z,99.99
2018-07-04T00:45:59.232Z,99.99
2018-07-04T00:46:59.160Z,99.99
2018-07-04T00:47:59.154Z,99.99
2018-07-04T00:48:58.874Z,99.99
2018-07-04T00:49:59.129Z,99.99
2018-07-04T00:50:59.136Z,99.99
2018-07-04T00:51:59.106Z,99.99
2018-07-04T00:52:59.107Z,99.99
2018-07-04T00:53:59.096Z,99.99
2018-07-04T00:54:59.080Z,99.99
2018-07-04T00:55:59.064Z,99.99
2018-07-04T00:56:59.058Z,99.99
2018-07-04T00:57:59.054Z,99.99
2018-07-04T00:58:59.033Z,99.99
2018-07-04T00:59:59.025Z,99.99
2018-07-04T01:00:59.028Z,99.99
2018-07-04T01:01:59.002Z,99.99
2018-07-04T01:02:58.995Z,99.99
2018-07-04T01:03:58.979Z,99.99
2018-07-04T01:04:58.706Z,99.99
2018-07-04T01:05:58.695Z,99.99
2018-07-04T01:06:58.682Z,99.99
2018-07-04T01:07:58.938Z,99.99
2018-07-04T01:08:58.659Z,99.99
2018-07-04T01:09:58.911Z,99.99
2018-07-04T01:10:58.900Z,99.99
2018-07-04T01:11:58.896Z,99.99
2018-07-04T01:12:58.882Z,99.99
2018-07-04T01:13:58.605Z,99.99
2018-07-04T01:14:58.863Z,99.99
2018-07-04T01:15:58.852Z,99.99
2018-07-04T01:16:58.570Z,99.99
2018-07-04T01:17:58.561Z,99.99
2018-07-04T01:18:58.549Z,99.99
2018-07-04T01:19:58.804Z,99.99
2018-07-04T01:20:58.526Z,99.99
2018-07-04T01:21:58.519Z,99.99
2018-07-04T01:22:58.768Z,99.99
2018-07-04T01:23:58.760Z,99.99
2018-07-04T01:24:58.745Z,99.99
2018-07-04T01:25:58.734Z,99.99
2018-07-04T01:26:58.731Z,99.99
2018-07-04T01:27:58.716Z,99.99
2018-07-04T01:28:58.707Z,99.99
2018-07-04T01:29:58.427Z,99.99
2018-07-04T01:30:58.681Z,99.99
2018-07-04T01:31:58.673Z,99.99
2018-07-04T01:32:58.661Z,99.99
2018-07-04T01:33:58.643Z,99.99
2018-07-04T01:34:58.637Z,99.99
2018-07-04T01:35:58.627Z,99.99
2018-07-04T01:36:58.613Z,99.99
2018-07-04T01:37:58.603Z,99.99
2018-07-04T01:38:58.604Z,99.99
2018-07-04T01:39:58.577Z,99.99
2018-07-04T01:40:58.503Z,99.99
2018-07-04T01:41:58.559Z,99.99
2018-07-04T01:42:58.282Z,99.99
2018-07-04T01:43:58.543Z,99.99
2018-07-04T01:44:58.260Z,99.99
2018-07-04T01:45:58.515Z,99.99
2018-07-04T01:46:58.503Z,99.99
2018-07-04T01:47:58.228Z,99.99
2018-07-04T01:48:58.478Z,99.99
2018-07-04T01:49:58.468Z,99.99
2018-07-04T01:50:58.193Z,99.99
2018-07-04T01:51:58.449Z,99.99
2018-07-04T01:52:58.434Z,99.99
2018-07-04T01:53:58.161Z,99.99
2018-07-04T01:54:58.411Z,99.99
2018-07-04T01:55:58.139Z,99.99
2018-07-04T01:56:58.128Z,99.99
2018-07-04T01:57:58.382Z,99.99
2018-07-04T01:58:58.363Z,99.99
2018-07-04T01:59:58.356Z,99.99
2018-07-04T02:00:58.344Z,99.99
2018-07-04T02:01:58.336Z,99.99
2018-07-04T02:02:58.059Z,99.99
2018-07-04T02:03:58.314Z,99.99
2018-07-04T02:04:58.038Z,99.99
2018-07-04T02:05:58.025Z,99.99
2018-07-04T02:06:58.276Z,99.99
2018-07-04T02:07:58.000Z,99.99
2018-07-04T02:08:57.994Z,99.99
2018-07-04T02:09:57.975Z,99.82
2018-07-04T02:10:58.228Z,99.99
2018-07-04T02:11:58.220Z,99.82
2018-07-04T02:12:57.947Z,99.15
2018-07-04T02:13:57.933Z,99.99
2018-07-04T02:14:58.184Z,99.99
2018-07-04T02:15:58.220Z,99.99
2018-07-04T02:16:57.896Z,99.99
2018-07-04T02:17:57.885Z,99.99
2018-07-04T02:18:58.138Z,99.99
2018-07-04T02:19:57.871Z,99.99
2018-07-04T02:20:58.115Z,99.73
2018-07-04T02:21:58.103Z,99.99
2018-07-04T02:22:58.092Z,99.82
2018-07-04T02:23:57.816Z,99.34
2018-07-04T02:24:58.070Z,99.82
2018-07-04T02:25:57.796Z,99.82
2018-07-04T02:26:57.781Z,99.53
2018-07-04T02:27:58.037Z,99.82
2018-07-04T02:28:58.027Z,99.99
2018-07-04T02:29:58.011Z,99.99
2018-07-04T02:30:58.007Z,99.99
2018-07-04T02:31:57.730Z,99.63
2018-07-04T02:32:57.711Z,99.44
2018-07-04T02:33:57.717Z,99.91
2018-07-04T02:34:57.952Z,99.73
2018-07-04T02:35:57.949Z,97.52
2018-07-04T02:36:57.935Z,99.05
2018-07-04T02:37:57.921Z,99.73
2018-07-04T02:38:57.909Z,99.44
2018-07-04T02:39:57.897Z,99.99
2018-07-04T02:40:57.885Z,99.63
2018-07-04T02:41:57.884Z,99.63
2018-07-04T02:42:57.859Z,99.53
2018-07-04T02:43:57.587Z,99.24
2018-07-04T02:44:57.647Z,99.15
2018-07-04T02:45:57.827Z,99.24
2018-07-04T02:46:57.831Z,99.73
2018-07-04T02:47:57.541Z,99.73
2018-07-04T02:48:57.527Z,99.53
2018-07-04T02:49:57.521Z,99.44
2018-07-04T02:50:57.769Z,99.99
2018-07-04T02:51:57.756Z,99.99
2018-07-04T02:52:57.759Z,99.73
2018-07-04T02:53:57.470Z,99.53
2018-07-04T02:54:57.457Z,98.86
2018-07-04T02:55:57.710Z,98.62
2018-07-04T02:56:57.700Z,98.86
2018-07-04T02:57:57.422Z,99.15
2018-07-04T02:58:57.675Z,99.05
2018-07-04T02:59:57.670Z,99.05
2018-07-04T03:00:57.387Z,97.66
2018-07-04T03:01:57.844Z,98.38
2018-07-04T03:02:57.631Z,98.1
2018-07-04T03:03:57.622Z,97.52
2018-07-04T03:04:57.607Z,97.14
2018-07-04T03:05:57.340Z,96.85
2018-07-04T03:06:57.375Z,96.94
2018-07-04T03:07:57.576Z,96.94
2018-07-04T03:08:57.301Z,96.56
2018-07-04T03:09:57.550Z,96.85
2018-07-04T03:10:57.537Z,96.85
2018-07-04T03:11:57.528Z,96.94
2018-07-04T03:12:57.520Z,96.75
2018-07-04T03:13:57.502Z,97.52
2018-07-04T03:14:57.228Z,97.42
2018-07-04T03:15:57.213Z,97.81
2018-07-04T03:16:57.468Z,98
2018-07-04T03:17:57.196Z,98.19
2018-07-04T03:18:57.447Z,98.86
2018-07-04T03:19:57.439Z,98.28
2018-07-04T03:20:57.158Z,98.86
2018-07-04T03:21:57.149Z,99.2
2018-07-04T03:22:57.399Z,99.73
2018-07-04T03:23:57.121Z,99.96
2018-07-04T03:24:57.374Z,99.68
2018-07-04T03:25:57.369Z,99.68
2018-07-04T03:26:57.367Z,99.2
2018-07-04T03:27:57.344Z,99.87
2018-07-04T03:28:57.325Z,99.2
2018-07-04T03:29:57.053Z,99.77
2018-07-04T03:30:57.304Z,98.14
2018-07-04T03:31:57.037Z,99.01
2018-07-04T03:32:57.031Z,98.91
2018-07-04T03:33:57.272Z,98.91
2018-07-04T03:34:57.000Z,99.29
2018-07-04T03:35:57.251Z,99.99
2018-07-04T03:36:57.235Z,99.99
2018-07-04T03:37:56.965Z,99.68
2018-07-04T03:38:57.261Z,99.87
2018-07-04T03:39:57.201Z,99.01
2018-07-04T03:40:57.145Z,99.87
2018-07-04T03:41:56.923Z,99.99
2018-07-04T03:42:56.906Z,99.58
2018-07-04T03:43:56.894Z,99.77
2018-07-04T03:44:57.147Z,99.49
2018-07-04T03:45:56.873Z,99.2
2018-07-04T03:46:57.127Z,99.96
2018-07-04T03:47:56.855Z,99.58
2018-07-04T03:48:57.103Z,99.44
2018-07-04T03:49:56.829Z,99.73
2018-07-04T03:50:56.812Z,99.2
2018-07-04T03:51:57.067Z,99.68
2018-07-04T03:52:57.053Z,99.29
2018-07-04T03:53:57.050Z,98.82
2018-07-04T03:54:57.031Z,99.39
2018-07-04T03:55:57.019Z,98.91
2018-07-04T03:56:56.746Z,99.58
2018-07-04T03:57:56.741Z,99.87
2018-07-04T03:58:56.725Z,99.63
2018-07-04T03:59:56.712Z,99.77
2018-07-04T04:00:56.966Z,99.99
2018-07-04T04:01:56.958Z,99.99
2018-07-04T04:02:56.950Z,98.82
2018-07-04T04:03:56.665Z,99.29
2018-07-04T04:04:56.922Z,99.01
2018-07-04T04:05:56.908Z,99.58
2018-07-04T04:06:56.631Z,99.99
2018-07-04T04:07:56.891Z,99.99
2018-07-04T04:08:56.613Z,99.58
2018-07-04T04:09:56.597Z,99.99
2018-07-04T04:10:56.851Z,99.99
2018-07-04T04:11:56.577Z,99.99
2018-07-04T04:12:56.608Z,99.99
2018-07-04T04:13:56.816Z,99.99
2018-07-04T04:14:56.543Z,99.99
2018-07-04T04:15:56.793Z,99.99
2018-07-04T04:16:56.525Z,99.99
2018-07-04T04:17:56.776Z,99.96
2018-07-04T04:18:56.763Z,99.99
2018-07-04T04:19:56.927Z,99.99
2018-07-04T04:20:56.744Z,99.99
2018-07-04T04:21:56.737Z,99.99
2018-07-04T04:22:56.717Z,99.99
2018-07-04T04:23:56.708Z,99.99
2018-07-04T04:24:56.697Z,99.99
2018-07-04T04:25:56.422Z,99.99
2018-07-04T04:26:56.688Z,99.99
2018-07-04T04:27:56.665Z,99.99
2018-07-04T04:28:56.391Z,99.99
2018-07-04T04:29:56.376Z,99.99
2018-07-04T04:30:56.630Z,99.99
2018-07-04T04:31:56.358Z,99.99
2018-07-04T04:32:56.607Z,99.99
2018-07-04T04:33:56.719Z,99.99
2018-07-04T04:34:56.584Z,99.99
2018-07-04T04:35:56.309Z,99.99
2018-07-04T04:36:56.307Z,99.99
2018-07-04T04:37:56.559Z,99.99
2018-07-04T04:38:56.547Z,99.99
2018-07-04T04:39:56.267Z,99.99
2018-07-04T04:40:56.522Z,99.99
2018-07-04T04:41:56.513Z,99.99
2018-07-04T04:42:56.245Z,99.99
2018-07-04T04:43:56.496Z,99.99
2018-07-04T04:44:56.478Z,99.99
2018-07-04T04:45:56.470Z,99.99
2018-07-04T04:46:56.462Z,99.99
2018-07-04T04:47:56.448Z,99.99
2018-07-04T04:48:56.449Z,99.99
2018-07-04T04:49:56.163Z,99.99
2018-07-04T04:50:56.415Z,99.99
2018-07-04T04:51:56.404Z,99.99
2018-07-04T04:52:56.133Z,99.99
2018-07-04T04:53:56.390Z,99.99
2018-07-04T04:54:56.555Z,99.99
2018-07-04T04:55:56.371Z,99.99
2018-07-04T04:56:56.358Z,99.99
2018-07-04T04:57:56.080Z,99.99
2018-07-04T04:58:56.067Z,99.99
2018-07-04T04:59:56.061Z,99.99
2018-07-04T05:00:56.322Z,99.99
2018-07-04T05:01:56.037Z,99.99
2018-07-04T05:02:56.292Z,99.99
2018-07-04T05:03:56.281Z,99.99
2018-07-04T05:04:56.269Z,99.99
2018-07-04T05:05:56.263Z,99.99
2018-07-04T05:06:55.998Z,99.99
2018-07-04T05:07:56.027Z,99.99
2018-07-04T05:08:56.232Z,99.99
2018-07-04T05:09:55.957Z,99.99
2018-07-04T05:10:55.944Z,99.99
2018-07-04T05:11:55.932Z,99.99
2018-07-04T05:12:56.194Z,99.99
2018-07-04T05:13:55.914Z,99.99
2018-07-04T05:14:55.907Z,99.99
2018-07-04T05:15:56.162Z,99.99
2018-07-04T05:16:56.153Z,99.99
2018-07-04T05:17:55.876Z,99.99
2018-07-04T05:18:56.125Z,99.99
2018-07-04T05:19:56.115Z,99.99
2018-07-04T05:20:55.896Z,99.99
2018-07-04T05:21:56.099Z,99.99
2018-07-04T05:22:55.823Z,99.99
2018-07-04T05:23:55.810Z,99.99
2018-07-04T05:24:56.067Z,99.99
2018-07-04T05:25:56.055Z,99.99
2018-07-04T05:26:55.783Z,99.99
2018-07-04T05:27:56.037Z,99.99
2018-07-04T05:28:55.761Z,99.99
2018-07-04T05:29:56.018Z,99.99
2018-07-04T05:30:56.007Z,99.99
2018-07-04T05:31:56.001Z,99.99
2018-07-04T05:32:55.985Z,99.99
2018-07-04T05:33:55.974Z,99.99
2018-07-04T05:34:55.964Z,99.99
2018-07-04T05:35:55.950Z,99.99
2018-07-04T05:36:55.685Z,99.99
2018-07-04T05:37:55.935Z,99.99
2018-07-04T05:38:55.924Z,99.99
2018-07-04T05:39:55.916Z,99.99
2018-07-04T05:40:56.382Z,99.99
2018-07-04T05:41:55.939Z,99.99
2018-07-04T05:42:55.884Z,99.99
2018-07-04T05:43:56.119Z,99.99
2018-07-04T05:44:55.602Z,99.99
2018-07-04T05:45:55.911Z,99.99
2018-07-04T05:46:55.844Z,99.99
2018-07-04T05:47:55.573Z,99.99
2018-07-04T05:48:55.822Z,99.99
2018-07-04T05:49:55.557Z,99.99
2018-07-04T05:50:55.803Z,99.99
2018-07-04T05:51:55.791Z,99.99
2018-07-04T05:52:55.787Z,99.99
2018-07-04T05:53:55.777Z,99.99
2018-07-04T05:54:55.763Z,99.99
2018-07-04T05:55:55.751Z,99.99
2018-07-04T05:56:55.477Z,99.99
2018-07-04T05:57:55.734Z,99.99
2018-07-04T05:58:55.727Z,99.99
2018-07-04T05:59:55.718Z,99.99
2018-07-04T06:00:55.441Z,99.99
2018-07-04T06:01:55.432Z,99.99
2018-07-04T06:02:55.419Z,99.99
2018-07-04T06:03:55.671Z,99.99
2018-07-04T06:04:55.663Z,99.99
2018-07-04T06:05:55.391Z,99.99
2018-07-04T06:06:55.643Z,99.99
2018-07-04T06:07:55.636Z,99.99
2018-07-04T06:08:55.359Z,99.99
2018-07-04T06:09:55.351Z,99.99
2018-07-04T06:10:55.608Z,99.99
2018-07-04T06:11:55.334Z,99.99
2018-07-04T06:12:55.586Z,99.99
2018-07-04T06:13:55.574Z,99.99
2018-07-04T06:14:55.336Z,99.99
2018-07-04T06:15:55.554Z,99.99
2018-07-04T06:16:55.632Z,99.99
2018-07-04T06:17:55.276Z,99.99
2018-07-04T06:18:55.560Z,99.99
2018-07-04T06:19:55.521Z,99.99
2018-07-04T06:20:55.244Z,99.99
2018-07-04T06:21:55.235Z,99.99
2018-07-04T06:22:55.492Z,99.99
2018-07-04T06:23:55.477Z,99.99
2018-07-04T06:24:55.475Z,99.99
2018-07-04T06:25:55.201Z,99.99
2018-07-04T06:26:55.451Z,99.99
2018-07-04T06:27:55.183Z,99.99
2018-07-04T06:28:55.168Z,99.99
2018-07-04T06:29:55.425Z,99.99
2018-07-04T06:30:55.412Z,99.99
2018-07-04T06:31:55.402Z,99.99
2018-07-04T06:32:55.402Z,99.99
2018-07-04T06:33:55.381Z,99.99
2018-07-04T06:34:55.379Z,99.99
2018-07-04T06:35:55.364Z,99.99
2018-07-04T06:36:55.090Z,99.99
2018-07-04T06:37:55.345Z,99.99
2018-07-04T06:38:55.073Z,99.99
2018-07-04T06:39:55.062Z,99.99
2018-07-04T06:40:55.314Z,99.99
2018-07-04T06:41:55.305Z,99.99
2018-07-04T06:42:55.294Z,99.99
2018-07-04T06:43:55.297Z,99.99
2018-07-04T06:44:55.279Z,99.99
2018-07-04T06:45:55.271Z,99.99
2018-07-04T06:46:55.264Z,99.99
2018-07-04T06:47:55.256Z,99.99
2018-07-04T06:48:55.301Z,99.99
2018-07-04T06:49:54.972Z,99.99
2018-07-04T06:50:54.962Z,99.99
2018-07-04T06:51:54.948Z,99.99
2018-07-04T06:52:54.945Z,99.99
2018-07-04T06:53:55.228Z,99.99
2018-07-04T06:54:54.930Z,99.99
2018-07-04T06:55:54.919Z,99.99
2018-07-04T06:56:54.913Z,99.99
2018-07-04T06:57:55.167Z,99.99
2018-07-04T06:58:54.892Z,99.99
2018-07-04T06:59:55.145Z,99.99
2018-07-04T07:00:54.871Z,99.99
2018-07-04T07:01:54.925Z,99.99
2018-07-04T07:02:55.126Z,99.99
2018-07-04T07:03:54.850Z,99.99
2018-07-04T07:04:55.098Z,99.99
2018-07-04T07:05:54.826Z,99.99
2018-07-04T07:06:54.825Z,98.68
2018-07-04T07:07:54.810Z,95.25
2018-07-04T07:08:55.078Z,92.15
2018-07-04T07:09:54.797Z,88.9
2018-07-04T07:10:54.784Z,86.38
2018-07-04T07:11:55.042Z,84.39
2018-07-04T07:12:55.030Z,83.07
2018-07-04T07:13:54.761Z,83.65
2018-07-04T07:14:55.027Z,85.17
2018-07-04T07:15:55.008Z,86.96
2018-07-04T07:16:55.008Z,89.44
2018-07-04T07:17:54.991Z,91.52
2018-07-04T07:18:54.989Z,88.28
2018-07-04T07:19:54.977Z,84.35
2018-07-04T07:20:54.708Z,80.65
2018-07-04T07:21:54.973Z,77.39
2018-07-04T07:22:54.692Z,76.07
2018-07-04T07:23:54.686Z,75.72
2018-07-04T07:24:54.946Z,74.88
2018-07-04T07:25:54.935Z,73.46
2018-07-04T07:26:54.927Z,72.59
2018-07-04T07:27:54.928Z,70.87
2018-07-04T07:28:54.924Z,69.81
2018-07-04T07:29:54.915Z,69.06
2018-07-04T07:30:54.914Z,68.02
2018-07-04T07:31:54.905Z,67.47
2018-07-04T07:32:54.637Z,66.63
2018-07-04T07:33:54.995Z,64.2
2018-07-04T07:34:54.895Z,65.26
2018-07-04T07:35:54.624Z,65.75
2018-07-04T07:36:54.882Z,64.13
2018-07-04T07:37:54.618Z,63.28
2018-07-04T07:38:54.871Z,62.5
2018-07-04T07:39:54.607Z,61.85
2018-07-04T07:40:55.068Z,61.66
2018-07-04T07:41:54.936Z,60.61
2018-07-04T07:42:54.860Z,60.64
2018-07-04T07:43:54.598Z,58.5
2018-07-04T07:44:54.853Z,59.08
2018-07-04T07:45:54.866Z,58.4
2018-07-04T07:46:54.847Z,58.13
2018-07-04T07:47:54.847Z,57.54
2018-07-04T07:48:54.582Z,57.57
2018-07-04T07:49:54.844Z,57.5
2018-07-04T07:50:54.575Z,56.06
2018-07-04T07:51:54.836Z,55.47
2018-07-04T07:52:54.573Z,54.23
2018-07-04T07:53:54.835Z,54.13
2018-07-04T07:54:54.832Z,52.79
2018-07-04T07:55:54.827Z,52.79
2018-07-04T07:56:54.824Z,53.18
2018-07-04T07:57:54.824Z,52.79
2018-07-04T07:58:54.824Z,53.67
2018-07-04T07:59:54.827Z,53.57
2018-07-04T08:00:54.565Z,52.13
2018-07-04T08:01:54.884Z,52.33
2018-07-04T08:02:54.831Z,51.66
2018-07-04T08:03:54.822Z,51.96
2018-07-04T08:04:54.821Z,51.89
2018-07-04T08:05:54.573Z,50.81
2018-07-04T08:06:54.827Z,50.32
2018-07-04T08:07:54.816Z,50.32
2018-07-04T08:08:54.819Z,51.69
2018-07-04T08:09:54.822Z,50.51
2018-07-04T08:10:54.557Z,50.24
2018-07-04T08:11:54.825Z,49.16
2018-07-04T08:12:54.820Z,48.96
2018-07-04T08:13:54.564Z,48.6
2018-07-04T08:14:54.558Z,49.19
2018-07-04T08:15:54.576Z,49.51
2018-07-04T08:16:54.837Z,49.41
2018-07-04T08:17:54.830Z,49.99
2018-07-04T08:18:54.973Z,49.58
2018-07-04T08:19:54.563Z,49.58
2018-07-04T08:20:54.835Z,47.52
2018-07-04T08:21:55.147Z,48.6
2018-07-04T08:22:54.834Z,48.4
2018-07-04T08:23:54.833Z,48.6
2018-07-04T08:24:54.829Z,49.11
2018-07-04T08:25:54.844Z,47.44
2018-07-04T08:26:54.572Z,47.83
2018-07-04T08:27:54.837Z,46.95
2018-07-04T08:28:54.851Z,47.64
2018-07-04T08:29:54.844Z,47.74
2018-07-04T08:30:54.577Z,47.05
2018-07-04T08:31:54.629Z,47.74
2018-07-04T08:32:54.583Z,47.44
2018-07-04T08:33:54.844Z,48.6
2018-07-04T08:34:54.588Z,49.53
2018-07-04T08:35:54.852Z,49.99
2018-07-04T08:36:54.591Z,50.63
2018-07-04T08:37:54.854Z,51.61
2018-07-04T08:38:54.613Z,51
2018-07-04T08:39:54.595Z,52.05
2018-07-04T08:40:54.862Z,52.93
2018-07-04T08:41:54.859Z,52.71
2018-07-04T08:42:54.906Z,52.61
2018-07-04T08:43:54.856Z,52.71
2018-07-04T08:44:54.874Z,53.56
2018-07-04T08:45:54.866Z,54.71
2018-07-04T08:46:54.864Z,55.08
2018-07-04T08:47:54.862Z,56.02
2018-07-04T08:48:54.858Z,57.56
2018-07-04T08:49:54.856Z,58.48
2018-07-04T08:50:54.980Z,59.06
2018-07-04T08:51:54.851Z,59.23
2018-07-04T08:52:54.936Z,59.81
2018-07-04T08:53:54.848Z,59.78
2018-07-04T08:54:54.848Z,60.36
2018-07-04T08:55:54.585Z,61.02
2018-07-04T08:56:54.583Z,61.51
2018-07-04T08:57:54.840Z,61.38
2018-07-04T08:58:54.576Z,62.84
2018-07-04T08:59:54.852Z,61.87
2018-07-04T09:00:54.837Z,63.03
2018-07-04T09:01:54.846Z,62.93
2018-07-04T09:02:54.842Z,62.26
2018-07-04T09:03:54.575Z,61.41
2018-07-04T09:04:54.835Z,59.3
2018-07-04T09:05:54.838Z,58.22
2018-07-04T09:06:54.843Z,55.54
2018-07-04T09:07:54.836Z,54.39
2018-07-04T09:08:54.834Z,54.61
2018-07-04T09:09:54.572Z,54.03
2018-07-04T09:10:54.842Z,53.59
2018-07-04T09:11:54.634Z,51.76
2018-07-04T09:12:54.574Z,51.71
2018-07-04T09:13:54.576Z,51.32
2018-07-04T09:14:54.848Z,50.37
2018-07-04T09:15:54.844Z,49.9
2018-07-04T09:16:54.844Z,49.53
2018-07-04T09:17:54.850Z,49.99
2018-07-04T09:18:54.592Z,49.9
2018-07-04T09:19:54.586Z,49.97
2018-07-04T09:20:54.590Z,50.07
2018-07-04T09:21:54.877Z,50.15
2018-07-04T09:22:54.600Z,50.22
2018-07-04T09:23:54.595Z,49.11
2018-07-04T09:24:54.868Z,49.99
2018-07-04T09:25:54.863Z,51.34
2018-07-04T09:26:54.870Z,51.71
2018-07-04T09:27:54.866Z,52
2018-07-04T09:28:54.605Z,52.17
2018-07-04T09:29:54.607Z,52.86
2018-07-04T09:30:54.869Z,54.13
2018-07-04T09:31:54.871Z,53.13
2018-07-04T09:32:54.618Z,53.15
2018-07-04T09:33:54.877Z,53.54
2018-07-04T09:34:54.877Z,53.64
2018-07-04T09:35:54.880Z,52.66
2018-07-04T09:36:54.618Z,52.08
2018-07-04T09:37:54.880Z,53.52
2018-07-04T09:38:54.892Z,53.68
2018-07-04T09:39:54.887Z,54.95
2018-07-04T09:41:54.885Z,55.44
2018-07-04T09:42:54.633Z,53.81
2018-07-04T09:43:54.648Z,53.42
2018-07-04T09:44:54.634Z,52.47
2018-07-04T09:45:54.902Z,51.9
2018-07-04T09:46:54.639Z,51.22
2018-07-04T09:47:54.917Z,51.49
2018-07-04T09:48:54.908Z,51.95
2018-07-04T09:49:54.906Z,52.73
2018-07-04T09:50:54.913Z,54.1
2018-07-04T09:51:54.925Z,53.13
2018-07-04T09:52:54.912Z,52.15
2018-07-04T09:53:54.649Z,52.44
2018-07-04T09:54:54.912Z,52.8
2018-07-04T09:55:54.914Z,53.97
2018-07-04T09:56:54.911Z,54.17
2018-07-04T09:57:54.914Z,52.8
2018-07-04T09:58:55.042Z,52.7
2018-07-04T09:59:54.910Z,54.24
2018-07-04T10:00:54.915Z,53.75
2018-07-04T10:01:54.645Z,53.66
2018-07-04T10:02:54.913Z,54.24
2018-07-04T10:03:54.910Z,53.95
2018-07-04T10:04:54.907Z,52.87
2018-07-04T10:05:54.904Z,52.19
2018-07-04T10:06:54.916Z,52.09
2018-07-04T10:07:54.903Z,52.46
2018-07-04T10:08:54.904Z,52.26
2018-07-04T10:09:54.903Z,52.46
2018-07-04T10:10:54.635Z,51.61
2018-07-04T10:11:54.904Z,52.46
2018-07-04T10:12:54.904Z,52.48
2018-07-04T10:13:54.907Z,53.46
2018-07-04T10:14:54.637Z,52.58
2018-07-04T10:15:54.899Z,53.46
2018-07-04T10:16:54.630Z,53.56
2018-07-04T10:17:54.636Z,53.66
2018-07-04T10:18:54.897Z,54.05
2018-07-04T10:19:54.895Z,53.46
2018-07-04T10:20:54.893Z,54.05
2018-07-04T10:21:54.894Z,52.9
2018-07-04T10:22:54.888Z,52.7
2018-07-04T10:23:54.889Z,52.9
2018-07-04T10:24:54.885Z,52.51
2018-07-04T10:25:54.622Z,54.27
2018-07-04T10:26:54.890Z,53.61
2018-07-04T10:27:54.890Z,52.73
2018-07-04T10:28:54.956Z,51.88
2018-07-04T10:29:54.894Z,52.78
2018-07-04T10:30:54.890Z,52.22
2018-07-04T10:31:54.890Z,50.98
2018-07-04T10:32:54.892Z,49.7
2018-07-04T10:33:54.628Z,46.91
2018-07-04T10:34:54.630Z,47.01
2018-07-04T10:35:54.900Z,48.77
2018-07-04T10:36:54.900Z,49.07
2018-07-04T10:37:54.659Z,48.6
2018-07-04T10:38:54.908Z,47.55
2018-07-04T10:39:54.909Z,46.02
2018-07-04T10:40:54.911Z,46.83
2018-07-04T10:41:54.649Z,46.46
2018-07-04T10:42:54.915Z,45.01
2018-07-04T10:43:54.920Z,43.85
2018-07-04T10:44:55.161Z,45.62
2018-07-04T10:45:54.928Z,44.66
2018-07-04T10:46:54.933Z,44.07
2018-07-04T10:47:54.672Z,44.19
2018-07-04T10:48:54.945Z,43.82
2018-07-04T10:49:54.680Z,42.46
2018-07-04T10:50:54.719Z,42.47
2018-07-04T10:51:54.691Z,42.68
2018-07-04T10:52:54.959Z,43.88
2018-07-04T10:53:54.966Z,41.12
2018-07-04T10:54:54.716Z,41.43
2018-07-04T10:55:54.979Z,44
2018-07-04T10:56:54.991Z,41.16
2018-07-04T10:57:54.986Z,41.17
2018-07-04T10:58:54.995Z,40.31
2018-07-04T10:59:54.735Z,41.59
2018-07-04T11:00:54.740Z,42.11
2018-07-04T11:01:54.750Z,40.64
2018-07-04T11:02:55.017Z,40.05
2018-07-04T11:03:54.759Z,40.15
2018-07-04T11:04:55.035Z,39.37
2018-07-04T11:05:55.036Z,39.1
2018-07-04T11:06:55.046Z,39.29
2018-07-04T11:07:54.787Z,39.2
2018-07-04T11:08:55.063Z,39.4
2018-07-04T11:09:55.077Z,39
2018-07-04T11:10:55.071Z,39.77
2018-07-04T11:11:54.814Z,38.57
2018-07-04T11:12:54.822Z,40.17
2018-07-04T11:13:54.830Z,38.49
2018-07-04T11:14:55.110Z,38.98
2018-07-04T11:15:55.124Z,38.6
2018-07-04T11:16:54.860Z,37.32
2018-07-04T11:17:55.125Z,37.81
2018-07-04T11:18:55.132Z,37.62
2018-07-04T11:19:55.134Z,37.81
2018-07-04T11:20:54.875Z,36.92
2018-07-04T11:21:55.151Z,38.4
2018-07-04T11:22:54.896Z,37.22
2018-07-04T11:23:55.162Z,37.6
2018-07-04T11:24:55.168Z,37.49
2018-07-04T11:25:55.186Z,37.38
2018-07-04T11:26:55.190Z,37.87
2018-07-04T11:27:54.929Z,37.36
2018-07-04T11:28:55.206Z,39.6
2018-07-04T11:29:55.207Z,40.17
2018-07-04T11:30:55.216Z,38.69
2018-07-04T11:31:55.228Z,39.09
2018-07-04T11:32:54.969Z,38.39
2018-07-04T11:33:55.246Z,38.89
2018-07-04T11:34:55.241Z,39.97
2018-07-04T11:35:55.250Z,39.89
2018-07-04T11:36:54.991Z,39
2018-07-04T11:37:55.261Z,37.62
2018-07-04T11:38:55.273Z,38.71
2018-07-04T11:39:55.011Z,39.11
2018-07-04T11:40:55.283Z,39.99
2018-07-04T11:41:55.289Z,39.54
2018-07-04T11:42:55.299Z,38.55
2018-07-04T11:43:55.038Z,37.87
2018-07-04T11:44:55.312Z,39.56
2018-07-04T11:45:55.317Z,38.51
2018-07-04T11:46:55.063Z,38.31
2018-07-04T11:47:55.336Z,37.53
2018-07-04T11:48:55.350Z,37.34
2018-07-04T11:49:55.349Z,37.32
2018-07-04T11:50:55.355Z,36.43
2018-07-04T11:51:55.374Z,36.35
2018-07-04T11:52:55.381Z,36.74
2018-07-04T11:53:55.117Z,37.13
2018-07-04T11:54:55.392Z,36.76
2018-07-04T11:55:55.405Z,36.77
2018-07-04T11:56:55.494Z,36.77
2018-07-04T11:57:55.152Z,35.88
2018-07-04T11:58:55.423Z,37.26
2018-07-04T11:59:55.165Z,36.36
2018-07-04T12:00:55.188Z,36.28
2018-07-04T12:01:55.599Z,35.69
2018-07-04T12:02:55.455Z,36.66
2018-07-04T12:03:55.198Z,36.86
2018-07-04T12:04:55.481Z,37.07
2018-07-04T12:05:55.214Z,36.9
2018-07-04T12:06:55.484Z,35.62
2018-07-04T12:07:55.496Z,35.62
2018-07-04T12:08:55.506Z,37.39
2018-07-04T12:09:55.249Z,36.2
2018-07-04T12:10:55.631Z,36.69
2018-07-04T12:11:55.265Z,37.04
2018-07-04T12:12:55.272Z,37.04
2018-07-04T12:13:55.543Z,38.37
2018-07-04T12:14:55.287Z,38.35
2018-07-04T12:15:55.565Z,38.76
2018-07-04T12:16:55.580Z,38.67
2018-07-04T12:17:55.575Z,38.55
2018-07-04T12:18:55.325Z,39.64
2018-07-04T12:19:55.327Z,39.73
2018-07-04T12:20:55.656Z,38.06
2018-07-04T12:21:55.609Z,39.16
2018-07-04T12:22:55.615Z,38.17
2018-07-04T12:23:55.365Z,38.98
2018-07-04T12:24:55.366Z,38.59
2018-07-04T12:25:55.640Z,39.24
2018-07-04T12:26:55.756Z,41.59
2018-07-04T12:27:55.654Z,40.39
2018-07-04T12:28:55.398Z,40.61
2018-07-04T12:29:55.665Z,40.11
2018-07-04T12:30:55.405Z,40.41
2018-07-04T12:31:55.705Z,39.32
2018-07-04T12:32:55.689Z,40.07
2018-07-04T12:33:55.692Z,41.53
2018-07-04T12:34:55.434Z,41.02
2018-07-04T12:35:55.537Z,42.2
2018-07-04T12:36:55.735Z,42.87
2018-07-04T12:37:55.451Z,43.07
2018-07-04T12:38:55.731Z,43.54
2018-07-04T12:39:55.726Z,43.91
2018-07-04T12:40:55.738Z,43.79
2018-07-04T12:41:55.739Z,43.89
2018-07-04T12:42:55.743Z,44.21
2018-07-04T12:43:55.749Z,43.82
2018-07-04T12:44:55.748Z,43.62
2018-07-04T12:45:55.778Z,43.82
2018-07-04T12:46:55.508Z,44.19
2018-07-04T12:47:55.800Z,44.29
2018-07-04T12:48:55.773Z,45.13
2018-07-04T12:49:55.771Z,45.3
2018-07-04T12:50:55.517Z,45.67
2018-07-04T12:51:55.792Z,46.26
2018-07-04T12:52:55.790Z,46.14
2018-07-04T12:53:55.966Z,46.81
2018-07-04T12:54:55.898Z,48.38
2018-07-04T12:55:55.800Z,47.27
2018-07-04T12:56:55.799Z,47.96
2018-07-04T12:57:55.800Z,47.74
2018-07-04T12:58:55.539Z,47.64
2018-07-04T12:59:55.804Z,48.03
2018-07-04T13:00:55.542Z,48.7
2018-07-04T13:01:55.808Z,49.38
2018-07-04T13:02:56.096Z,48.21
2018-07-04T13:03:55.543Z,47.91
2018-07-04T13:04:55.548Z,49.19